Time;durP1;ratioP1;P1;durP2;ratioP2;P2;SDS_P1;SDS_P2;PMS_P1;PMS_P2;Temp;Humidity;BMP_temperature;BMP_pressure;BME280_temperature;BME280_humidity;BME280_pressure;Samples;Min_cycle;Max_cycle;Signal;HPM_P1;HPM_P2
2022/03/29 00:01:59;;;;;;;6.53;5.32;;;19.30;44.80;;;;;;5113793;28;20069;-59
2022/03/29 00:04:25;;;;;;;6.10;4.97;;;19.30;44.80;;;;;;5114613;28;20028;-59
2022/03/29 00:06:54;;;;;;;6.20;5.53;;;19.30;44.80;;;;;;5095762;28;20020;-59
2022/03/29 00:09:20;;;;;;;6.18;5.57;;;19.30;44.80;;;;;;5095753;28;20019;-59
2022/03/29 00:11:46;;;;;;;5.60;4.90;;;19.30;44.90;;;;;;5113314;28;20016;-59
2022/03/29 00:14:12;;;;;;;7.20;5.47;;;19.30;44.90;;;;;;5095261;28;20016;-58
2022/03/29 00:16:38;;;;;;;6.53;5.55;;;19.30;44.90;;;;;;5113124;28;20038;-58
2022/03/29 00:19:04;;;;;;;5.90;4.97;;;19.20;44.90;;;;;;5094942;28;20012;-59
2022/03/29 00:21:30;;;;;;;6.32;5.22;;;19.30;44.90;;;;;;5113178;28;20026;-58
2022/03/29 00:23:56;;;;;;;7.05;5.20;;;19.30;44.90;;;;;;5113131;28;20015;-58
2022/03/29 00:26:21;;;;;;;6.63;5.10;;;19.20;44.90;;;;;;5113309;28;20442;-58
2022/03/29 00:28:48;;;;;;;7.60;5.00;;;19.30;45.00;;;;;;5115593;28;20036;-58
2022/03/29 00:31:14;;;;;;;6.82;4.95;;;19.30;45.00;;;;;;5116365;28;20039;-58
2022/03/29 00:33:41;;;;;;;6.60;5.72;;;19.20;44.90;;;;;;5098566;28;20053;-58
2022/03/29 00:36:06;;;;;;;6.25;5.20;;;19.20;44.90;;;;;;5116751;28;20032;-59
2022/03/29 00:38:32;;;;;;;6.55;5.03;;;19.20;44.90;;;;;;5098344;28;20024;-58
2022/03/29 00:40:58;;;;;;;6.45;5.18;;;19.20;44.90;;;;;;5116868;28;20024;-59
2022/03/29 00:43:24;;;;;;;5.85;5.32;;;19.20;44.90;;;;;;5098752;28;20369;-58
2022/03/29 00:45:50;;;;;;;7.80;5.20;;;19.20;45.00;;;;;;5116241;28;20031;-58
2022/03/29 00:48:15;;;;;;;6.22;5.00;;;19.20;45.00;;;;;;5098257;28;20016;-57
2022/03/29 00:50:42;;;;;;;7.60;5.88;;;19.20;45.00;;;;;;5098080;28;20011;-58
2022/03/29 00:53:08;;;;;;;6.97;5.85;;;19.20;45.00;;;;;;5116330;28;20012;-57
2022/03/29 00:55:34;;;;;;;6.90;5.13;;;19.20;45.00;;;;;;5116621;28;20019;-58
2022/03/29 00:58:04;;;;;;;7.07;5.93;;;19.20;45.00;;;;;;5100373;28;20019;-59
2022/03/29 01:00:31;;;;;;;6.15;5.55;;;19.20;45.00;;;;;;5119381;28;20023;-58
2022/03/29 01:02:58;;;;;;;8.40;5.40;;;19.20;45.00;;;;;;5118096;28;20511;-59
2022/03/29 01:05:26;;;;;;;9.07;6.00;;;19.20;45.10;;;;;;5099793;28;20028;-57
2022/03/29 01:07:54;;;;;;;7.65;5.60;;;19.20;45.10;;;;;;5118466;28;20012;-59
2022/03/29 01:10:20;;;;;;;6.78;5.68;;;19.20;45.00;;;;;;5118400;28;20012;-58
2022/03/29 01:12:46;;;;;;;7.53;5.97;;;19.20;45.00;;;;;;5117171;28;20069;-58
2022/03/29 01:15:12;;;;;;;8.68;5.57;;;19.20;45.00;;;;;;5098370;28;20457;-59
2022/03/29 01:17:41;;;;;;;7.40;5.75;;;19.20;45.10;;;;;;5116467;28;20019;-59
2022/03/29 01:20:20;;;;;;;7.20;5.78;;;19.20;45.10;;;;;;5098462;28;20054;-58
2022/03/29 01:22:49;;;;;;;7.13;5.47;;;19.10;45.10;;;;;;5098600;28;20031;-58
2022/03/29 01:25:17;;;;;;;6.65;5.57;;;19.20;45.10;;;;;;5116238;28;20027;-58
2022/03/29 01:27:47;;;;;;;8.20;6.13;;;19.20;45.10;;;;;;5115854;28;20060;-58
2022/03/29 01:30:13;;;;;;;6.68;5.78;;;19.20;45.10;;;;;;5097535;28;20096;-58
2022/03/29 01:32:46;;;;;;;6.22;5.50;;;19.20;45.10;;;;;;5115314;28;20012;-58
2022/03/29 01:35:13;;;;;;;7.60;5.82;;;19.20;45.10;;;;;;5115606;28;20012;-59
2022/03/29 01:37:39;;;;;;;8.65;5.70;;;19.20;45.20;;;;;;5097574;28;20019;-58
2022/03/29 01:40:06;;;;;;;7.90;6.18;;;19.10;45.10;;;;;;5113896;28;20015;-58
2022/03/29 01:42:33;;;;;;;8.10;5.93;;;19.10;45.20;;;;;;5115600;28;20048;-58
2022/03/29 01:45:00;;;;;;;8.73;6.05;;;19.20;45.80;;;;;;5115328;28;20398;-58
2022/03/29 01:47:26;;;;;;;6.55;5.72;;;19.10;45.20;;;;;;5115572;28;20056;-59
2022/03/29 01:49:52;;;;;;;7.75;5.55;;;19.10;45.20;;;;;;5115239;28;20031;-58
2022/03/29 01:52:19;;;;;;;8.43;5.97;;;19.10;45.20;;;;;;5097039;28;20057;-58
2022/03/29 01:54:45;;;;;;;6.85;5.70;;;19.10;45.20;;;;;;5115377;28;20020;-58
2022/03/29 01:57:14;;;;;;;6.82;6.07;;;19.10;45.20;;;;;;5096704;28;20027;-58
2022/03/29 02:02:24;;;;;;;7.45;5.82;;;19.10;45.20;;;;;;5115263;28;20389;-58
2022/03/29 02:04:51;;;;;;;7.55;5.80;;;19.10;45.30;;;;;;5115318;28;20124;-59
2022/03/29 02:07:16;;;;;;;6.38;5.50;;;19.10;45.30;;;;;;5114766;28;20098;-58
2022/03/29 02:09:43;;;;;;;6.88;6.05;;;19.10;45.30;;;;;;5114839;28;20008;-59
2022/03/29 02:12:12;;;;;;;7.78;5.53;;;19.10;45.30;;;;;;5114852;28;20016;-59
2022/03/29 02:14:38;;;;;;;7.55;5.60;;;19.10;45.30;;;;;;5097165;28;20019;-58
2022/03/29 02:17:04;;;;;;;6.18;5.57;;;19.10;45.30;;;;;;5114630;28;20016;-59
2022/03/29 02:19:33;;;;;;;6.90;5.72;;;19.10;45.30;;;;;;5114628;28;20015;-58
2022/03/29 02:21:59;;;;;;;6.18;5.57;;;19.10;45.30;;;;;;5114763;28;21051;-58
2022/03/29 02:24:24;;;;;;;8.45;6.00;;;19.10;45.40;;;;;;5114520;28;20114;-57
2022/03/29 02:26:51;;;;;;;8.82;6.10;;;19.00;45.30;;;;;;5096881;28;20019;-58
2022/03/29 02:29:17;;;;;;;8.05;6.05;;;19.10;45.40;;;;;;5114985;28;20087;-58
2022/03/29 02:31:43;;;;;;;6.72;5.75;;;19.00;45.30;;;;;;5115109;28;20588;-59
2022/03/29 02:34:09;;;;;;;7.88;6.13;;;19.00;45.30;;;;;;5115347;28;20024;-58
2022/03/29 02:36:35;;;;;;;6.40;5.80;;;19.00;45.30;;;;;;5079845;28;20103;-57
2022/03/29 02:39:01;;;;;;;7.57;6.25;;;19.10;45.40;;;;;;5096727;28;20500;-58
2022/03/29 02:41:28;;;;;;;6.75;6.05;;;19.00;45.30;;;;;;5114718;28;20037;-58
2022/03/29 02:43:54;;;;;;;7.20;6.20;;;19.00;45.30;;;;;;5114773;28;20046;-58
2022/03/29 02:46:20;;;;;;;9.15;6.50;;;19.10;45.40;;;;;;5114330;28;20008;-57
2022/03/29 02:48:46;;;;;;;6.18;5.40;;;19.00;45.40;;;;;;5114238;28;20031;-57
2022/03/29 02:51:12;;;;;;;7.93;5.88;;;19.00;45.40;;;;;;5113780;28;20011;-57
2022/03/29 02:53:39;;;;;;;7.45;5.80;;;19.00;45.40;;;;;;5114626;28;20012;-57
2022/03/29 02:56:05;;;;;;;6.57;5.88;;;19.00;45.40;;;;;;5115019;28;20020;-57
2022/03/29 02:58:30;;;;;;;6.32;5.68;;;19.00;45.40;;;;;;5096987;28;20558;-57
2022/03/29 03:00:57;;;;;;;8.07;6.03;;;19.00;45.40;;;;;;5096846;28;20027;-57
2022/03/29 03:03:23;;;;;;;6.50;5.53;;;19.00;45.40;;;;;;5097126;28;20016;-56
2022/03/29 03:05:49;;;;;;;9.23;5.97;;;19.00;45.40;;;;;;5097465;28;20069;-58
2022/03/29 03:08:17;;;;;;;8.63;6.20;;;19.00;45.40;;;;;;5115035;28;20016;-58
2022/03/29 03:10:43;;;;;;;9.40;6.43;;;19.00;45.40;;;;;;5114191;28;20559;-58
2022/03/29 03:13:11;;;;;;;6.95;5.45;;;19.00;45.40;;;;;;5114334;28;20106;-58
2022/03/29 03:15:37;;;;;;;7.57;6.28;;;19.00;45.40;;;;;;5114840;28;20384;-58
2022/03/29 03:18:03;;;;;;;7.93;6.18;;;19.00;45.40;;;;;;5116190;28;20031;-59
2022/03/29 03:20:30;;;;;;;6.43;5.63;;;19.00;45.40;;;;;;5115490;28;20043;-58
2022/03/29 03:22:56;;;;;;;10.00;6.00;;;19.00;45.40;;;;;;5097600;28;20042;-58
2022/03/29 03:25:24;;;;;;;7.10;6.00;;;19.00;45.50;;;;;;5116227;28;20024;-58
2022/03/29 03:27:50;;;;;;;6.32;5.63;;;19.00;45.50;;;;;;5116212;28;20015;-59
2022/03/29 03:30:16;;;;;;;8.77;5.75;;;19.00;45.50;;;;;;5115677;28;20493;-58
2022/03/29 03:32:42;;;;;;;6.78;5.88;;;19.00;45.50;;;;;;5114636;28;20076;-58
2022/03/29 03:35:10;;;;;;;8.88;5.95;;;19.00;45.50;;;;;;5096412;28;20020;-59
2022/03/29 03:37:36;;;;;;;8.07;6.28;;;19.00;45.50;;;;;;5114276;28;20016;-58
2022/03/29 03:40:05;;;;;;;8.48;5.90;;;19.00;45.50;;;;;;5096703;28;20076;-59
2022/03/29 03:42:31;;;;;;;6.78;5.90;;;19.00;45.50;;;;;;5097062;28;20509;-57
2022/03/29 03:44:58;;;;;;;7.32;6.10;;;19.00;45.50;;;;;;5114961;28;20127;-57
2022/03/29 03:47:25;;;;;;;6.40;5.80;;;18.90;45.50;;;;;;5097102;28;20015;-57
2022/03/29 03:49:50;;;;;;;7.05;5.90;;;19.00;45.50;;;;;;5115429;28;20078;-58
2022/03/29 03:52:17;;;;;;;8.38;6.38;;;18.90;45.50;;;;;;5097486;28;20034;-58
2022/03/29 03:54:44;;;;;;;6.97;5.70;;;18.90;45.50;;;;;;5115075;28;20023;-58
2022/03/29 03:57:09;;;;;;;6.38;5.68;;;18.90;45.50;;;;;;5116058;28;20016;-58
2022/03/29 03:59:36;;;;;;;7.47;5.93;;;18.90;45.50;;;;;;5096905;28;20025;-59
2022/03/29 04:02:02;;;;;;;7.13;6.03;;;18.90;45.50;;;;;;5096400;28;20019;-58
2022/03/29 04:04:28;;;;;;;8.63;5.72;;;18.90;45.50;;;;;;5118591;28;20098;-58
2022/03/29 04:06:55;;;;;;;6.72;5.95;;;18.90;45.50;;;;;;5118928;28;20020;-59
2022/03/29 04:09:20;;;;;;;7.82;6.22;;;18.90;45.50;;;;;;5100401;28;20026;-57
2022/03/29 04:11:47;;;;;;;6.10;5.50;;;18.90;45.50;;;;;;5118299;28;20083;-58
2022/03/29 04:14:13;;;;;;;9.18;6.32;;;18.90;45.60;;;;;;5117838;28;20020;-58
2022/03/29 04:16:38;;;;;;;7.05;5.63;;;19.00;45.60;;;;;;5099584;28;20038;-58
2022/03/29 04:19:05;;;;;;;6.78;5.80;;;18.90;45.50;;;;;;5099610;28;20069;-58
2022/03/29 04:21:32;;;;;;;8.07;6.82;;;18.90;45.50;;;;;;5099607;28;20020;-59
2022/03/29 04:24:00;;;;;;;8.75;6.22;;;18.90;45.60;;;;;;5118280;28;20466;-58
2022/03/29 04:26:26;;;;;;;7.20;5.97;;;18.90;45.50;;;;;;5118669;28;20024;-58
2022/03/29 04:28:58;;;;;;;6.32;5.57;;;18.90;45.60;;;;;;5119715;28;20036;-59
2022/03/29 04:31:24;;;;;;;8.82;6.10;;;18.90;45.60;;;;;;5100235;28;20043;-58
2022/03/29 04:33:50;;;;;;;8.45;5.68;;;18.90;45.60;;;;;;5100283;28;20016;-58
2022/03/29 04:36:16;;;;;;;7.22;5.90;;;18.90;45.60;;;;;;5118178;28;20465;-58
2022/03/29 04:38:43;;;;;;;8.38;6.20;;;18.90;45.60;;;;;;5117145;28;20020;-59
2022/03/29 04:41:10;;;;;;;8.57;6.30;;;18.90;45.60;;;;;;5116934;28;20104;-57
2022/03/29 04:43:36;;;;;;;6.65;5.90;;;18.90;45.60;;;;;;5117177;28;20020;-58
2022/03/29 04:46:02;;;;;;;7.43;5.70;;;18.80;45.50;;;;;;5116935;28;20020;-58
2022/03/29 04:48:29;;;;;;;8.07;6.20;;;18.90;45.60;;;;;;5116650;28;20024;-57
2022/03/29 04:50:55;;;;;;;7.72;6.18;;;18.90;45.60;;;;;;5116735;28;20020;-58
2022/03/29 04:53:21;;;;;;;6.95;6.22;;;18.90;45.60;;;;;;5117166;28;20012;-57
2022/03/29 04:55:46;;;;;;;8.10;6.70;;;18.90;45.60;;;;;;5118847;28;20012;-57
2022/03/29 04:58:12;;;;;;;7.30;5.35;;;18.90;45.60;;;;;;5099466;28;20416;-57
2022/03/29 05:00:38;;;;;;;8.30;5.60;;;18.80;45.60;;;;;;5117943;28;20462;-58
2022/03/29 05:03:04;;;;;;;7.32;5.88;;;18.90;45.60;;;;;;5117300;28;20381;-58
2022/03/29 05:05:30;;;;;;;8.18;6.25;;;18.80;45.60;;;;;;5116488;28;20042;-58
2022/03/29 05:07:56;;;;;;;7.82;6.07;;;18.80;45.60;;;;;;5115924;28;20081;-58
2022/03/29 05:10:23;;;;;;;7.35;5.65;;;18.80;45.60;;;;;;5116298;28;20077;-58
2022/03/29 05:12:49;;;;;;;8.25;5.82;;;18.80;45.50;;;;;;5116377;28;20022;-58
2022/03/29 05:15:17;;;;;;;7.80;5.78;;;18.80;45.50;;;;;;5097747;28;20020;-58
2022/03/29 05:17:43;;;;;;;8.05;6.20;;;18.80;45.60;;;;;;5116347;28;20020;-58
2022/03/29 05:20:10;;;;;;;7.38;5.63;;;18.80;45.60;;;;;;5116708;28;20156;-58
2022/03/29 05:22:50;;;;;;;8.32;6.10;;;18.80;45.60;;;;;;5116461;28;20047;-57
2022/03/29 05:25:18;;;;;;;6.88;5.95;;;18.80;45.60;;;;;;5116046;28;20016;-57
2022/03/29 05:27:44;;;;;;;7.43;5.65;;;18.80;45.60;;;;;;5116658;28;20012;-58
2022/03/29 05:30:11;;;;;;;7.60;6.18;;;18.80;45.50;;;;;;5115897;28;20038;-58
2022/03/29 05:32:37;;;;;;;7.38;5.85;;;18.90;45.60;;;;;;5097771;28;20111;-56
2022/03/29 05:35:04;;;;;;;7.18;5.85;;;18.80;46.10;;;;;;5098080;28;20020;-58
2022/03/29 05:37:30;;;;;;;9.05;5.72;;;18.80;45.60;;;;;;5098477;28;20024;-58
2022/03/29 05:39:56;;;;;;;6.85;5.97;;;18.80;45.60;;;;;;5116129;28;20438;-58
2022/03/29 05:42:21;;;;;;;7.15;5.38;;;18.80;45.60;;;;;;5116041;28;20012;-58
2022/03/29 05:44:48;;;;;;;8.32;6.03;;;18.80;45.60;;;;;;5115437;28;20036;-57
2022/03/29 05:49:58;;;;;;;6.65;5.85;;;18.80;45.60;;;;;;5115581;28;20039;-58
2022/03/29 05:52:24;;;;;;;9.30;5.75;;;18.80;45.60;;;;;;5115274;28;20015;-57
2022/03/29 05:54:50;;;;;;;8.50;5.70;;;18.80;45.60;;;;;;5115245;28;20085;-57
2022/03/29 05:57:16;;;;;;;7.30;6.10;;;18.80;45.60;;;;;;5115451;28;20465;-57
2022/03/29 05:59:43;;;;;;;6.32;5.70;;;18.80;45.60;;;;;;5116010;28;20019;-57
2022/03/29 06:02:09;;;;;;;7.90;5.85;;;18.80;45.60;;;;;;5116183;28;20023;-58
2022/03/29 06:04:35;;;;;;;7.47;5.82;;;18.80;45.60;;;;;;5097194;28;20020;-58
2022/03/29 06:07:02;;;;;;;7.82;6.03;;;18.80;46.10;;;;;;5096456;28;20008;-58
2022/03/29 06:09:28;;;;;;;7.75;5.75;;;18.80;45.60;;;;;;5115052;28;20118;-57
2022/03/29 06:11:53;;;;;;;7.55;5.80;;;18.80;45.60;;;;;;5097149;28;20020;-58
2022/03/29 06:14:20;;;;;;;8.32;5.38;;;18.80;45.60;;;;;;5097607;28;20393;-57
2022/03/29 06:16:45;;;;;;;6.82;5.22;;;18.80;45.60;;;;;;5098659;28;20031;-58
2022/03/29 06:19:11;;;;;;;7.97;5.93;;;18.80;45.60;;;;;;5117223;28;20056;-58
2022/03/29 06:21:37;;;;;;;8.30;6.15;;;18.80;45.60;;;;;;5097925;28;20024;-58
2022/03/29 06:24:10;;;;;;;6.65;5.65;;;18.80;45.60;;;;;;5098334;28;20060;-58
2022/03/29 06:26:37;;;;;;;9.18;5.90;;;18.80;45.60;;;;;;5114627;28;20030;-58
2022/03/29 06:29:06;;;;;;;11.15;6.00;;;18.80;45.60;;;;;;5114763;28;20091;-58
2022/03/29 06:31:32;;;;;;;6.97;5.75;;;18.80;45.60;;;;;;5114385;28;20034;-58
2022/03/29 06:33:58;;;;;;;7.68;5.57;;;18.80;45.60;;;;;;5096627;28;20024;-59
2022/03/29 06:36:25;;;;;;;9.43;5.90;;;18.80;45.60;;;;;;5114315;28;20018;-58
2022/03/29 06:38:50;;;;;;;7.40;5.70;;;18.80;45.60;;;;;;5114084;28;20015;-57
2022/03/29 06:41:16;;;;;;;10.30;5.63;;;18.80;45.60;;;;;;5114268;28;20020;-57
2022/03/29 06:43:42;;;;;;;7.85;5.70;;;18.80;45.60;;;;;;5113932;28;20011;-57
2022/03/29 06:46:09;;;;;;;10.40;6.78;;;18.80;45.50;;;;;;5114061;28;20073;-57
2022/03/29 06:48:39;;;;;;;9.65;5.88;;;18.80;45.50;;;;;;5113975;28;20016;-58
2022/03/29 06:51:05;;;;;;;7.28;5.60;;;18.80;45.60;;;;;;5114309;28;20008;-57
2022/03/29 06:53:31;;;;;;;10.85;5.47;;;18.80;45.50;;;;;;5113678;28;20019;-57
2022/03/29 06:55:57;;;;;;;6.88;5.57;;;18.80;45.50;;;;;;5095768;28;20035;-57
2022/03/29 06:58:23;;;;;;;10.63;5.90;;;18.80;45.50;;;;;;5113874;28;20394;-58
2022/03/29 07:00:49;;;;;;;8.07;5.80;;;18.80;45.50;;;;;;5095371;28;20507;-57
2022/03/29 07:03:15;;;;;;;8.13;5.78;;;18.80;45.50;;;;;;5095234;28;20421;-57
2022/03/29 07:05:42;;;;;;;7.65;5.32;;;18.80;45.50;;;;;;5095388;28;20028;-58
2022/03/29 07:08:10;;;;;;;8.88;5.72;;;18.80;45.50;;;;;;5095739;28;20024;-60
2022/03/29 07:13:22;;;;;;;7.72;5.80;;;18.80;45.40;;;;;;5113634;28;20550;-57
2022/03/29 07:15:49;;;;;;;7.03;5.15;;;18.80;45.40;;;;;;5112800;28;20108;-56
2022/03/29 07:18:16;;;;;;;6.93;5.38;;;18.80;45.40;;;;;;5113301;28;20092;-57
2022/03/29 07:20:42;;;;;;;7.50;5.55;;;18.80;45.40;;;;;;5113266;28;20030;-56
2022/03/29 07:23:08;;;;;;;6.90;5.20;;;18.80;45.40;;;;;;5113326;28;20019;-58
2022/03/29 07:25:34;;;;;;;6.43;4.97;;;18.80;45.40;;;;;;5114004;28;20097;-56
2022/03/29 07:28:00;;;;;;;6.20;5.05;;;18.80;45.40;;;;;;5094939;28;20362;-57
2022/03/29 07:30:27;;;;;;;6.43;4.93;;;18.80;45.40;;;;;;5112932;28;20048;-57
2022/03/29 07:32:57;;;;;;;7.18;5.32;;;18.80;45.40;;;;;;5112678;28;20027;-57
2022/03/29 07:35:24;;;;;;;7.47;5.13;;;18.80;45.40;;;;;;5113218;28;20012;-57
2022/03/29 07:37:52;;;;;;;8.00;5.50;;;18.80;45.30;;;;;;5116224;28;20048;-57
2022/03/29 07:40:22;;;;;;;7.45;5.40;;;18.80;45.30;;;;;;5117421;28;20020;-57
2022/03/29 07:42:49;;;;;;;8.45;5.65;;;18.80;45.30;;;;;;5099336;28;20028;-57
2022/03/29 07:45:16;;;;;;;7.35;5.65;;;18.80;45.30;;;;;;5117047;28;20024;-57
2022/03/29 07:47:42;;;;;;;9.82;5.70;;;18.80;45.30;;;;;;5116938;28;20042;-57
2022/03/29 07:50:11;;;;;;;6.90;5.28;;;18.80;45.30;;;;;;5117131;28;20019;-57
2022/03/29 07:52:40;;;;;;;6.68;5.07;;;18.80;45.30;;;;;;5117540;28;20012;-57
2022/03/29 07:55:07;;;;;;;10.73;5.95;;;18.80;45.30;;;;;;5117633;28;20026;-57
2022/03/29 07:57:34;;;;;;;7.60;4.85;;;18.80;45.30;;;;;;5117280;28;20016;-57
2022/03/29 08:00:31;;;;;;;6.38;5.07;;;18.80;45.30;;;;;;5117099;28;20082;-59
2022/03/29 08:02:46;;;;;;;12.02;5.78;;;18.80;45.30;;;;;;5117644;28;20051;-57
2022/03/29 08:05:12;;;;;;;7.70;5.40;;;18.90;45.30;;;;;;5118154;28;20039;-58
2022/03/29 08:07:41;;;;;;;6.68;5.10;;;18.90;45.20;;;;;;5099846;28;20509;-57
2022/03/29 08:10:07;;;;;;;8.95;5.00;;;18.90;45.20;;;;;;5118323;28;20074;-57
2022/03/29 08:12:34;;;;;;;7.60;5.25;;;18.90;45.20;;;;;;5118070;28;20535;-57
2022/03/29 08:15:00;;;;;;;7.05;5.07;;;18.90;45.20;;;;;;5099112;28;20422;-58
2022/03/29 08:17:26;;;;;;;9.32;5.18;;;18.90;45.20;;;;;;5117255;28;20034;-58
2022/03/29 08:19:52;;;;;;;6.95;5.28;;;18.90;45.70;;;;;;5116084;28;20474;-57
2022/03/29 08:22:18;;;;;;;10.75;5.95;;;18.90;45.10;;;;;;5116175;28;20466;-56
2022/03/29 08:24:44;;;;;;;10.32;6.72;;;18.90;45.30;;;;;;5098350;28;20096;-55
2022/03/29 08:27:10;;;;;;;13.07;6.93;;;18.90;45.30;;;;;;5117502;28;20039;-56
2022/03/29 08:29:37;;;;;;;11.57;7.35;;;18.90;45.30;;;;;;5098468;28;20039;-56
2022/03/29 08:32:03;;;;;;;14.50;8.00;;;18.80;45.70;;;;;;5117243;28;20064;-58
2022/03/29 08:34:30;;;;;;;14.52;7.20;;;19.10;45.60;;;;;;5098622;28;20039;-58
2022/03/29 08:36:57;;;;;;;16.90;7.82;;;19.00;45.50;;;;;;5117053;28;20016;-58
2022/03/29 08:39:23;;;;;;;15.63;8.05;;;19.00;45.70;;;;;;5117254;28;20038;-58
2022/03/29 08:42:10;;;;;;;13.85;7.30;;;18.90;45.80;;;;;;5081018;28;20012;-58
2022/03/29 08:44:37;;;;;;;10.63;6.40;;;18.90;45.90;;;;;;5116508;28;20051;-59
2022/03/29 08:47:06;;;;;;;11.85;7.60;;;18.90;45.80;;;;;;5116724;28;20015;-58
2022/03/29 08:49:32;;;;;;;13.07;7.55;;;18.90;45.80;;;;;;5115506;28;20351;-59
2022/03/29 08:51:58;;;;;;;13.23;7.50;;;18.90;45.80;;;;;;5081643;28;20530;-57
2022/03/29 08:54:24;;;;;;;13.63;7.63;;;18.90;45.70;;;;;;5116857;28;20069;-58
2022/03/29 08:56:50;;;;;;;10.60;6.43;;;18.90;45.70;;;;;;5098603;28;20012;-58
2022/03/29 08:59:15;;;;;;;14.07;6.85;;;19.00;45.70;;;;;;5098328;28;20026;-58
2022/03/29 09:01:41;;;;;;;13.88;7.20;;;19.00;45.70;;;;;;5116788;28;20521;-58
2022/03/29 09:04:07;;;;;;;14.15;7.50;;;19.00;45.70;;;;;;5115843;28;20043;-58
2022/03/29 09:06:33;;;;;;;13.02;7.32;;;19.00;45.70;;;;;;5116553;28;20095;-58
2022/03/29 09:08:59;;;;;;;16.30;7.78;;;19.00;45.70;;;;;;5116191;28;20015;-58
2022/03/29 09:11:24;;;;;;;21.60;8.98;;;19.00;45.60;;;;;;5097182;28;20016;-60
2022/03/29 09:14:03;;;;;;;30.55;10.25;;;19.00;46.60;;;;;;5098160;28;20012;-59
2022/03/29 09:16:33;;;;;;;28.95;11.00;;;19.20;47.40;;;;;;5115849;28;20028;-57
2022/03/29 09:18:59;;;;;;;38.55;14.07;;;19.40;48.20;;;;;;5116589;28;20069;-58
2022/03/29 09:21:25;;;;;;;24.80;13.40;;;19.50;48.10;;;;;;5116793;28;20490;-59
2022/03/29 09:24:05;;;;;;;36.47;14.90;;;19.70;48.20;;;;;;5101146;28;20116;-58
2022/03/29 09:26:31;;;;;;;34.55;15.98;;;19.80;48.10;;;;;;5119608;28;20016;-59
2022/03/29 09:28:58;;;;;;;35.40;16.08;;;19.80;48.40;;;;;;5116778;28;20065;-58
2022/03/29 09:31:26;;;;;;;25.52;16.77;;;19.90;48.50;;;;;;5115957;28;20555;-59
2022/03/29 09:34:09;;;;;;;39.75;18.70;;;20.00;48.40;;;;;;5115636;28;20051;-58
2022/03/29 09:36:52;;;;;;;41.10;19.08;;;20.00;48.50;;;;;;5100153;28;20462;-58
2022/03/29 09:39:42;;;;;;;34.70;18.73;;;20.10;48.30;;;;;;5115387;28;20016;-59
2022/03/29 09:42:12;;;;;;;46.63;18.63;;;20.20;48.30;;;;;;5115446;28;20022;-58
2022/03/29 09:44:45;;;;;;;47.60;19.10;;;20.20;48.00;;;;;;5115197;28;20049;-59
2022/03/29 09:47:13;;;;;;;27.88;17.85;;;20.30;48.60;;;;;;5097472;28;20029;-58
2022/03/29 09:49:57;;;;;;;31.45;18.58;;;20.30;48.10;;;;;;5115751;28;20008;-58
2022/03/29 09:52:35;;;;;;;42.08;19.63;;;20.40;48.20;;;;;;5115604;28;20007;-57
2022/03/29 09:55:13;;;;;;;35.75;19.08;;;20.40;48.10;;;;;;5115021;28;20106;-58
2022/03/29 09:57:50;;;;;;;34.17;19.63;;;20.40;48.00;;;;;;5114789;28;20423;-58
2022/03/29 10:00:19;;;;;;;31.55;19.48;;;20.50;48.20;;;;;;5096019;28;20032;-58
2022/03/29 10:02:45;;;;;;;35.67;19.48;;;20.40;47.80;;;;;;5115254;28;20023;-58
2022/03/29 10:05:11;;;;;;;37.45;19.75;;;20.30;47.70;;;;;;5115094;28;20546;-58
2022/03/29 10:10:55;;;;;;;29.67;19.40;;;20.10;47.90;;;;;;5114655;28;20108;-59
2022/03/29 10:13:23;;;;;;;33.97;19.63;;;20.00;47.80;;;;;;5115205;28;20008;-59
2022/03/29 10:15:49;;;;;;;32.75;19.92;;;19.90;47.60;;;;;;5114779;28;20023;-57
2022/03/29 10:18:15;;;;;;;30.50;19.27;;;19.90;47.40;;;;;;5096336;28;20031;-58
2022/03/29 10:20:41;;;;;;;31.80;19.38;;;19.90;47.30;;;;;;5114642;28;20099;-60
2022/03/29 10:23:21;;;;;;;28.58;18.30;;;19.80;47.20;;;;;;5173502;27;20429;-58
2022/03/29 10:25:47;;;;;;;28.17;19.40;;;19.80;47.00;;;;;;5173782;27;20057;-58
2022/03/29 10:28:13;;;;;;;32.92;20.23;;;19.80;47.20;;;;;;5173150;27;20468;-57
2022/03/29 10:30:41;;;;;;;28.95;20.05;;;19.70;47.00;;;;;;5173135;27;20046;-58
2022/03/29 10:33:24;;;;;;;29.50;18.45;;;19.70;46.90;;;;;;5173471;27;20026;-58
2022/03/29 10:35:58;;;;;;;28.85;19.10;;;19.70;46.80;;;;;;5173135;27;20014;-58
2022/03/29 10:38:43;;;;;;;26.65;19.27;;;19.70;46.40;;;;;;5172384;27;20014;-58
2022/03/29 10:41:29;;;;;;;26.15;19.00;;;19.70;46.20;;;;;;5173860;27;20019;-57
2022/03/29 10:44:01;;;;;;;28.92;18.58;;;19.70;46.10;;;;;;5174995;27;20082;-58
2022/03/29 10:46:42;;;;;;;32.28;19.08;;;19.70;46.00;;;;;;5174613;27;20022;-59
2022/03/29 10:49:20;;;;;;;25.85;17.60;;;19.70;46.00;;;;;;5173602;27;20023;-58
2022/03/29 10:51:51;;;;;;;29.70;17.88;;;19.70;46.00;;;;;;5172558;27;20042;-58
2022/03/29 10:54:24;;;;;;;30.63;17.13;;;19.70;46.10;;;;;;5173654;27;20018;-59
2022/03/29 10:57:16;;;;;;;26.73;17.45;;;19.60;46.00;;;;;;5173400;27;20027;-59
2022/03/29 10:59:42;;;;;;;20.77;15.43;;;19.60;46.00;;;;;;5172138;27;20054;-58
2022/03/29 11:02:11;;;;;;;29.38;15.98;;;19.60;46.00;;;;;;5172268;27;20488;-58
2022/03/29 11:04:37;;;;;;;25.05;14.75;;;19.60;45.90;;;;;;5172520;27;20007;-59
2022/03/29 11:07:09;;;;;;;27.90;15.18;;;19.70;46.00;;;;;;5171379;27;20086;-58
2022/03/29 11:09:35;;;;;;;30.25;15.73;;;19.70;45.90;;;;;;5172540;27;20162;-59
2022/03/29 11:12:01;;;;;;;24.63;14.55;;;19.70;45.90;;;;;;5172797;27;20053;-58
2022/03/29 11:14:39;;;;;;;24.45;13.82;;;19.70;45.90;;;;;;5156341;27;20018;-59
2022/03/29 11:17:13;;;;;;;22.13;14.30;;;19.70;45.90;;;;;;5174458;27;20014;-59
2022/03/29 11:19:53;;;;;;;21.48;13.32;;;19.70;45.80;;;;;;5173960;27;20018;-59
2022/03/29 11:22:22;;;;;;;22.83;13.30;;;19.70;45.80;;;;;;5172176;27;20534;-59
2022/03/29 11:24:51;;;;;;;22.83;13.05;;;19.70;45.80;;;;;;5173329;27;20076;-58
2022/03/29 11:27:33;;;;;;;19.70;12.18;;;19.70;45.80;;;;;;5171948;27;20037;-59
2022/03/29 11:29:59;;;;;;;19.48;11.82;;;19.70;45.80;;;;;;5173000;27;20015;-58
2022/03/29 11:32:25;;;;;;;20.60;12.63;;;19.70;45.70;;;;;;5171729;27;20081;-58
2022/03/29 11:34:52;;;;;;;17.08;11.60;;;19.70;46.30;;;;;;5158043;27;20488;-58
2022/03/29 11:37:32;;;;;;;19.55;11.95;;;19.70;45.70;;;;;;5159123;27;20389;-59
2022/03/29 11:40:02;;;;;;;17.67;11.65;;;19.70;45.70;;;;;;5157934;27;20015;-59
2022/03/29 11:42:49;;;;;;;15.80;10.70;;;19.70;45.60;;;;;;5156508;27;20083;-59
2022/03/29 11:45:18;;;;;;;14.48;11.35;;;19.70;45.60;;;;;;5156819;27;20042;-58
2022/03/29 11:47:55;;;;;;;16.30;10.60;;;19.70;45.60;;;;;;5158030;27;20014;-59
2022/03/29 11:50:36;;;;;;;17.20;9.80;;;19.70;45.60;;;;;;5157651;27;20011;-58
2022/03/29 11:53:02;;;;;;;;;;;19.70;45.50;;;;;;5158233;27;20025;-58
2022/03/29 11:55:28;;;;;;;16.48;10.27;;;19.70;45.50;;;;;;5157718;27;19903;-58
2022/03/29 11:57:55;;;;;;;17.77;9.57;;;19.80;45.50;;;;;;5156119;27;20014;-58
2022/03/29 12:00:27;;;;;;;12.80;8.70;;;19.80;45.50;;;;;;5157470;27;20022;-58
2022/03/29 12:02:53;;;;;;;15.27;9.57;;;19.80;45.40;;;;;;5157381;27;20023;-58
2022/03/29 12:05:25;;;;;;;13.05;8.25;;;19.80;45.40;;;;;;5156776;27;20503;-58
2022/03/29 12:08:02;;;;;;;15.02;9.40;;;19.80;45.30;;;;;;5158206;27;20019;-58
2022/03/29 12:10:37;;;;;;;18.75;8.48;;;19.80;45.40;;;;;;5158756;27;20066;-58
2022/03/29 12:13:03;;;;;;;15.20;7.88;;;19.80;45.30;;;;;;5157709;27;20487;-57
2022/03/29 12:15:28;;;;;;;10.73;7.43;;;19.80;45.30;;;;;;5157056;27;20062;-59
2022/03/29 12:20:44;;;;;;;9.38;6.90;;;19.90;45.30;;;;;;5157260;27;20053;-58
2022/03/29 12:23:23;;;;;;;11.85;8.20;;;19.80;45.20;;;;;;5156544;27;20039;-58
2022/03/29 12:25:49;;;;;;;13.95;8.50;;;19.80;45.20;;;;;;5155629;27;20025;-58
2022/03/29 12:28:16;;;;;;;13.00;7.47;;;19.80;45.30;;;;;;5138081;27;20019;-58
2022/03/29 12:30:42;;;;;;;13.18;7.40;;;19.80;45.20;;;;;;5155154;27;20038;-58
2022/03/29 12:33:07;;;;;;;13.25;7.30;;;19.80;45.30;;;;;;5157189;27;20010;-59
2022/03/29 12:35:33;;;;;;;9.40;6.50;;;19.80;45.30;;;;;;5156957;27;20018;-58
2022/03/29 12:38:17;;;;;;;12.25;7.70;;;19.90;45.80;;;;;;5155386;27;20453;-60
2022/03/29 12:40:54;;;;;;;10.77;6.93;;;19.80;45.20;;;;;;5156343;27;20026;-59
2022/03/29 12:43:24;;;;;;;17.52;7.05;;;19.80;45.20;;;;;;5156326;27;20468;-59
2022/03/29 12:45:50;;;;;;;12.77;6.90;;;19.80;45.20;;;;;;5155390;27;20006;-57
2022/03/29 12:48:21;;;;;;;10.35;6.70;;;19.80;45.20;;;;;;5154916;27;20015;-58
2022/03/29 12:50:47;;;;;;;;;;;19.80;45.20;;;;;;5155070;27;20103;-57
2022/03/29 12:53:12;;;;;;;10.07;7.05;;;19.80;45.10;;;;;;5155226;27;19931;-58
2022/03/29 12:55:38;;;;;;;11.88;6.25;;;19.90;45.10;;;;;;5137574;27;20067;-58
2022/03/29 12:58:05;;;;;;;9.15;5.80;;;19.90;45.20;;;;;;5139701;27;20354;-56
2022/03/29 13:00:41;;;;;;;11.43;6.57;;;19.80;45.70;;;;;;5157726;27;20022;-58